sensor_id;sensor_type;location;lat;lon;timestamp;temperature;humidity
10828;DHT22;5467;59.334;13.512;2022-07-29T00:01:14;12.00;99.90
10828;DHT22;5467;59.334;13.512;2022-07-29T00:03:41;12.00;99.90
10828;DHT22;5467;59.334;13.512;2022-07-29T00:06:10;11.90;99.90
10828;DHT22;5467;59.334;13.512;2022-07-29T00:08:37;11.80;99.90
10828;DHT22;5467;59.334;13.512;2022-07-29T00:11:04;11.80;99.90
10828;DHT22;5467;59.334;13.512;2022-07-29T00:13:31;11.90;99.90
10828;DHT22;5467;59.334;13.512;2022-07-29T00:15:58;11.90;99.90
10828;DHT22;5467;59.334;13.512;2022-07-29T00:18:25;11.90;99.90
10828;DHT22;5467;59.334;13.512;2022-07-29T00:20:52;11.90;99.90
10828;DHT22;5467;59.334;13.512;2022-07-29T00:23:21;11.80;99.90
10828;DHT22;5467;59.334;13.512;2022-07-29T00:25:47;11.90;99.90
10828;DHT22;5467;59.334;13.512;2022-07-29T00:28:15;12.00;99.90
10828;DHT22;5467;59.334;13.512;2022-07-29T00:30:41;11.90;99.90
10828;DHT22;5467;59.334;13.512;2022-07-29T00:33:09;11.90;99.90
10828;DHT22;5467;59.334;13.512;2022-07-29T00:35:36;11.90;99.90
10828;DHT22;5467;59.334;13.512;2022-07-29T00:38:12;11.70;99.90
10828;DHT22;5467;59.334;13.512;2022-07-29T00:40:41;11.70;99.90
10828;DHT22;5467;59.334;13.512;2022-07-29T00:43:09;11.80;99.90
10828;DHT22;5467;59.334;13.512;2022-07-29T00:45:36;11.80;99.90
10828;DHT22;5467;59.334;13.512;2022-07-29T00:48:04;11.80;99.90
10828;DHT22;5467;59.334;13.512;2022-07-29T00:50:31;11.80;99.90
10828;DHT22;5467;59.334;13.512;2022-07-29T00:52:59;11.70;99.90
10828;DHT22;5467;59.334;13.512;2022-07-29T00:55:26;11.70;99.90
10828;DHT22;5467;59.334;13.512;2022-07-29T00:57:55;11.70;99.90
10828;DHT22;5467;59.334;13.512;2022-07-29T01:00:25;11.70;99.90
10828;DHT22;5467;59.334;13.512;2022-07-29T01:02:53;11.70;99.90
10828;DHT22;5467;59.334;13.512;2022-07-29T01:05:22;11.70;99.90
10828;DHT22;5467;59.334;13.512;2022-07-29T01:07:52;11.70;99.90
10828;DHT22;5467;59.334;13.512;2022-07-29T01:10:20;11.60;99.90
10828;DHT22;5467;59.334;13.512;2022-07-29T01:12:50;11.60;99.90
10828;DHT22;5467;59.334;13.512;2022-07-29T01:15:19;11.60;99.90
10828;DHT22;5467;59.334;13.512;2022-07-29T01:17:54;11.60;99.90
10828;DHT22;5467;59.334;13.512;2022-07-29T01:20:26;11.50;99.90
10828;DHT22;5467;59.334;13.512;2022-07-29T01:23:12;11.50;99.90
10828;DHT22;5467;59.334;13.512;2022-07-29T01:25:48;11.40;99.90
10828;DHT22;5467;59.334;13.512;2022-07-29T01:28:44;11.30;99.90
10828;DHT22;5467;59.334;13.512;2022-07-29T01:31:15;11.30;99.90
10828;DHT22;5467;59.334;13.512;2022-07-29T01:33:45;11.30;99.90
10828;DHT22;5467;59.334;13.512;2022-07-29T01:36:18;11.40;99.90
10828;DHT22;5467;59.334;13.512;2022-07-29T01:38:51;11.40;99.90
10828;DHT22;5467;59.334;13.512;2022-07-29T01:41:21;11.40;99.90
10828;DHT22;5467;59.334;13.512;2022-07-29T01:43:54;11.40;99.90
10828;DHT22;5467;59.334;13.512;2022-07-29T01:46:27;11.40;99.90
10828;DHT22;5467;59.334;13.512;2022-07-29T01:48:57;11.30;99.90
10828;DHT22;5467;59.334;13.512;2022-07-29T01:51:31;11.30;99.90
10828;DHT22;5467;59.334;13.512;2022-07-29T01:54:02;11.20;99.90
10828;DHT22;5467;59.334;13.512;2022-07-29T01:56:35;11.10;99.90
10828;DHT22;5467;59.334;13.512;2022-07-29T01:59:06;11.20;99.90
10828;DHT22;5467;59.334;13.512;2022-07-29T02:01:36;11.20;99.90
10828;DHT22;5467;59.334;13.512;2022-07-29T02:04:06;11.20;99.90
10828;DHT22;5467;59.334;13.512;2022-07-29T02:06:37;11.20;99.90
10828;DHT22;5467;59.334;13.512;2022-07-29T02:09:05;11.30;99.90
10828;DHT22;5467;59.334;13.512;2022-07-29T02:11:35;11.20;99.90
10828;DHT22;5467;59.334;13.512;2022-07-29T02:14:07;11.10;99.90
10828;DHT22;5467;59.334;13.512;2022-07-29T02:16:36;11.10;99.90
10828;DHT22;5467;59.334;13.512;2022-07-29T02:19:04;11.00;99.90
10828;DHT22;5467;59.334;13.512;2022-07-29T02:21:35;11.00;99.90
10828;DHT22;5467;59.334;13.512;2022-07-29T02:24:04;11.00;99.90
10828;DHT22;5467;59.334;13.512;2022-07-29T02:26:32;11.00;99.90
10828;DHT22;5467;59.334;13.512;2022-07-29T02:29:01;11.10;99.90
10828;DHT22;5467;59.334;13.512;2022-07-29T02:31:33;11.10;99.90
10828;DHT22;5467;59.334;13.512;2022-07-29T02:34:02;11.10;99.90
10828;DHT22;5467;59.334;13.512;2022-07-29T02:36:31;11.10;99.90
10828;DHT22;5467;59.334;13.512;2022-07-29T02:39:00;11.00;99.90
10828;DHT22;5467;59.334;13.512;2022-07-29T02:41:33;11.00;99.90
10828;DHT22;5467;59.334;13.512;2022-07-29T02:44:05;11.10;99.90
10828;DHT22;5467;59.334;13.512;2022-07-29T02:46:36;11.10;99.90
10828;DHT22;5467;59.334;13.512;2022-07-29T02:49:12;11.10;99.90
10828;DHT22;5467;59.334;13.512;2022-07-29T02:51:43;11.10;99.90
10828;DHT22;5467;59.334;13.512;2022-07-29T02:54:23;11.10;99.90
10828;DHT22;5467;59.334;13.512;2022-07-29T02:56:52;11.00;99.90
10828;DHT22;5467;59.334;13.512;2022-07-29T02:59:25;11.10;99.90
10828;DHT22;5467;59.334;13.512;2022-07-29T03:01:55;11.10;99.90
10828;DHT22;5467;59.334;13.512;2022-07-29T03:04:25;11.10;99.90
10828;DHT22;5467;59.334;13.512;2022-07-29T03:06:54;11.10;99.90
10828;DHT22;5467;59.334;13.512;2022-07-29T03:09:23;11.10;99.90
10828;DHT22;5467;59.334;13.512;2022-07-29T03:11:50;11.00;99.90
10828;DHT22;5467;59.334;13.512;2022-07-29T03:14:20;11.00;99.90
10828;DHT22;5467;59.334;13.512;2022-07-29T03:16:48;11.10;99.90
10828;DHT22;5467;59.334;13.512;2022-07-29T03:19:17;11.10;99.90
10828;DHT22;5467;59.334;13.512;2022-07-29T03:21:45;11.00;99.90
10828;DHT22;5467;59.334;13.512;2022-07-29T03:24:27;11.10;99.90
10828;DHT22;5467;59.334;13.512;2022-07-29T03:26:55;11.10;99.90
10828;DHT22;5467;59.334;13.512;2022-07-29T03:29:23;11.10;99.90
10828;DHT22;5467;59.334;13.512;2022-07-29T03:31:50;11.10;99.90
10828;DHT22;5467;59.334;13.512;2022-07-29T03:34:19;11.20;99.90
10828;DHT22;5467;59.334;13.512;2022-07-29T03:36:47;11.20;99.90
10828;DHT22;5467;59.334;13.512;2022-07-29T03:39:17;11.20;99.90
10828;DHT22;5467;59.334;13.512;2022-07-29T03:41:46;11.20;99.90
10828;DHT22;5467;59.334;13.512;2022-07-29T03:44:15;11.30;99.90
10828;DHT22;5467;59.334;13.512;2022-07-29T03:46:44;11.30;99.90
10828;DHT22;5467;59.334;13.512;2022-07-29T03:49:14;11.20;99.90
10828;DHT22;5467;59.334;13.512;2022-07-29T03:51:44;11.10;99.90
10828;DHT22;5467;59.334;13.512;2022-07-29T03:54:11;11.10;99.90
10828;DHT22;5467;59.334;13.512;2022-07-29T03:56:40;11.20;99.90
10828;DHT22;5467;59.334;13.512;2022-07-29T03:59:09;11.30;99.90
10828;DHT22;5467;59.334;13.512;2022-07-29T04:01:37;11.30;99.90
10828;DHT22;5467;59.334;13.512;2022-07-29T04:04:05;11.30;99.90
10828;DHT22;5467;59.334;13.512;2022-07-29T04:06:40;11.40;99.90
10828;DHT22;5467;59.334;13.512;2022-07-29T04:09:09;11.40;99.90
10828;DHT22;5467;59.334;13.512;2022-07-29T04:11:38;11.40;99.90
10828;DHT22;5467;59.334;13.512;2022-07-29T04:14:05;11.50;99.90
10828;DHT22;5467;59.334;13.512;2022-07-29T04:16:32;11.50;99.90
10828;DHT22;5467;59.334;13.512;2022-07-29T04:18:59;11.60;99.90
10828;DHT22;5467;59.334;13.512;2022-07-29T04:21:26;11.70;99.90
10828;DHT22;5467;59.334;13.512;2022-07-29T04:23:53;11.70;99.90
10828;DHT22;5467;59.334;13.512;2022-07-29T04:26:22;11.80;99.90
10828;DHT22;5467;59.334;13.512;2022-07-29T04:28:49;11.90;99.90
10828;DHT22;5467;59.334;13.512;2022-07-29T04:31:16;11.90;99.90
10828;DHT22;5467;59.334;13.512;2022-07-29T04:33:42;11.90;99.90
10828;DHT22;5467;59.334;13.512;2022-07-29T04:36:09;12.00;99.90
10828;DHT22;5467;59.334;13.512;2022-07-29T04:38:38;12.10;99.90
10828;DHT22;5467;59.334;13.512;2022-07-29T04:41:05;12.20;99.90
10828;DHT22;5467;59.334;13.512;2022-07-29T04:43:35;12.40;99.90
10828;DHT22;5467;59.334;13.512;2022-07-29T04:46:03;12.60;99.90
10828;DHT22;5467;59.334;13.512;2022-07-29T04:48:30;12.70;99.90
10828;DHT22;5467;59.334;13.512;2022-07-29T04:50:57;12.80;99.90
10828;DHT22;5467;59.334;13.512;2022-07-29T04:53:24;12.90;99.90
10828;DHT22;5467;59.334;13.512;2022-07-29T04:55:51;13.00;99.90
10828;DHT22;5467;59.334;13.512;2022-07-29T04:58:18;13.20;99.90
10828;DHT22;5467;59.334;13.512;2022-07-29T05:00:47;13.30;99.90
10828;DHT22;5467;59.334;13.512;2022-07-29T05:03:13;13.50;99.90
10828;DHT22;5467;59.334;13.512;2022-07-29T05:05:40;13.90;99.90
10828;DHT22;5467;59.334;13.512;2022-07-29T05:08:07;14.20;99.90
10828;DHT22;5467;59.334;13.512;2022-07-29T05:10:35;14.40;99.90
10828;DHT22;5467;59.334;13.512;2022-07-29T05:13:04;14.70;99.90
10828;DHT22;5467;59.334;13.512;2022-07-29T05:15:32;14.90;99.90
10828;DHT22;5467;59.334;13.512;2022-07-29T05:18:01;15.10;99.90
10828;DHT22;5467;59.334;13.512;2022-07-29T05:20:28;15.40;99.90
10828;DHT22;5467;59.334;13.512;2022-07-29T05:22:57;15.40;99.90
10828;DHT22;5467;59.334;13.512;2022-07-29T05:25:25;15.50;99.90
10828;DHT22;5467;59.334;13.512;2022-07-29T05:27:52;15.60;99.90
10828;DHT22;5467;59.334;13.512;2022-07-29T05:30:20;15.90;99.90
10828;DHT22;5467;59.334;13.512;2022-07-29T05:32:48;16.30;99.90
10828;DHT22;5467;59.334;13.512;2022-07-29T05:35:16;16.90;99.90
10828;DHT22;5467;59.334;13.512;2022-07-29T05:37:43;17.20;99.90
10828;DHT22;5467;59.334;13.512;2022-07-29T05:40:10;17.40;99.90
10828;DHT22;5467;59.334;13.512;2022-07-29T05:42:37;17.30;99.90
10828;DHT22;5467;59.334;13.512;2022-07-29T05:45:05;17.40;99.90
10828;DHT22;5467;59.334;13.512;2022-07-29T05:47:32;17.40;99.90
10828;DHT22;5467;59.334;13.512;2022-07-29T05:49:59;17.40;99.90
10828;DHT22;5467;59.334;13.512;2022-07-29T05:52:28;17.40;99.90
10828;DHT22;5467;59.334;13.512;2022-07-29T05:54:55;17.60;99.90
10828;DHT22;5467;59.334;13.512;2022-07-29T05:57:23;17.60;99.90
10828;DHT22;5467;59.334;13.512;2022-07-29T05:59:51;17.60;99.90
10828;DHT22;5467;59.334;13.512;2022-07-29T06:02:18;17.60;99.90
10828;DHT22;5467;59.334;13.512;2022-07-29T06:04:45;17.60;99.90
10828;DHT22;5467;59.334;13.512;2022-07-29T06:07:12;17.60;99.90
10828;DHT22;5467;59.334;13.512;2022-07-29T06:09:40;17.60;99.90
10828;DHT22;5467;59.334;13.512;2022-07-29T06:12:07;17.50;99.90
10828;DHT22;5467;59.334;13.512;2022-07-29T06:14:35;17.50;99.90
10828;DHT22;5467;59.334;13.512;2022-07-29T06:17:03;17.60;99.90
10828;DHT22;5467;59.334;13.512;2022-07-29T06:19:30;17.70;99.90
10828;DHT22;5467;59.334;13.512;2022-07-29T06:21:57;17.90;99.90
10828;DHT22;5467;59.334;13.512;2022-07-29T06:24:24;17.80;99.90
10828;DHT22;5467;59.334;13.512;2022-07-29T06:26:53;18.00;99.90
10828;DHT22;5467;59.334;13.512;2022-07-29T06:29:20;18.00;99.90
10828;DHT22;5467;59.334;13.512;2022-07-29T06:31:47;18.00;99.90
10828;DHT22;5467;59.334;13.512;2022-07-29T06:34:14;18.20;99.90
10828;DHT22;5467;59.334;13.512;2022-07-29T06:36:41;18.20;99.90
10828;DHT22;5467;59.334;13.512;2022-07-29T06:39:08;18.20;99.90
10828;DHT22;5467;59.334;13.512;2022-07-29T06:41:35;18.20;99.90
10828;DHT22;5467;59.334;13.512;2022-07-29T06:44:04;18.20;99.90
10828;DHT22;5467;59.334;13.512;2022-07-29T06:46:31;18.20;99.90
10828;DHT22;5467;59.334;13.512;2022-07-29T06:48:58;18.30;99.90
10828;DHT22;5467;59.334;13.512;2022-07-29T06:51:26;18.30;99.90
10828;DHT22;5467;59.334;13.512;2022-07-29T06:53:54;18.30;99.90
10828;DHT22;5467;59.334;13.512;2022-07-29T06:56:21;18.30;99.90
10828;DHT22;5467;59.334;13.512;2022-07-29T06:58:48;18.30;99.90
10828;DHT22;5467;59.334;13.512;2022-07-29T07:01:16;18.40;99.90
10828;DHT22;5467;59.334;13.512;2022-07-29T07:03:43;18.60;99.90
10828;DHT22;5467;59.334;13.512;2022-07-29T07:06:10;18.80;99.90
10828;DHT22;5467;59.334;13.512;2022-07-29T07:08:37;19.00;99.90
10828;DHT22;5467;59.334;13.512;2022-07-29T07:11:04;19.10;99.90
10828;DHT22;5467;59.334;13.512;2022-07-29T07:13:32;19.30;99.90
10828;DHT22;5467;59.334;13.512;2022-07-29T07:16:00;19.40;99.90
10828;DHT22;5467;59.334;13.512;2022-07-29T07:18:29;19.70;99.90
10828;DHT22;5467;59.334;13.512;2022-07-29T07:20:56;19.90;99.90
10828;DHT22;5467;59.334;13.512;2022-07-29T07:23:23;20.30;99.90
10828;DHT22;5467;59.334;13.512;2022-07-29T07:25:51;20.60;99.90
10828;DHT22;5467;59.334;13.512;2022-07-29T07:28:18;20.80;99.90
10828;DHT22;5467;59.334;13.512;2022-07-29T07:30:45;21.00;99.90
10828;DHT22;5467;59.334;13.512;2022-07-29T07:33:13;20.80;99.90
10828;DHT22;5467;59.334;13.512;2022-07-29T07:35:43;20.90;99.90
10828;DHT22;5467;59.334;13.512;2022-07-29T07:38:11;21.00;99.90
10828;DHT22;5467;59.334;13.512;2022-07-29T07:40:38;21.00;99.90
10828;DHT22;5467;59.334;13.512;2022-07-29T07:43:05;21.10;99.90
10828;DHT22;5467;59.334;13.512;2022-07-29T07:45:32;20.90;99.90
10828;DHT22;5467;59.334;13.512;2022-07-29T07:47:59;21.00;99.90
10828;DHT22;5467;59.334;13.512;2022-07-29T07:50:26;21.40;99.90
10828;DHT22;5467;59.334;13.512;2022-07-29T07:52:55;21.00;99.90
10828;DHT22;5467;59.334;13.512;2022-07-29T07:55:23;21.20;99.90
10828;DHT22;5467;59.334;13.512;2022-07-29T07:57:50;21.10;99.90
10828;DHT22;5467;59.334;13.512;2022-07-29T08:00:18;21.00;99.90
10828;DHT22;5467;59.334;13.512;2022-07-29T08:02:45;21.30;99.90
10828;DHT22;5467;59.334;13.512;2022-07-29T08:05:12;21.60;99.90
10828;DHT22;5467;59.334;13.512;2022-07-29T08:07:43;22.00;99.90
10828;DHT22;5467;59.334;13.512;2022-07-29T08:10:12;21.90;99.90
10828;DHT22;5467;59.334;13.512;2022-07-29T08:12:39;21.80;99.90
10828;DHT22;5467;59.334;13.512;2022-07-29T08:15:07;21.70;99.90
10828;DHT22;5467;59.334;13.512;2022-07-29T08:17:35;22.20;99.90
10828;DHT22;5467;59.334;13.512;2022-07-29T08:20:02;22.50;99.90
10828;DHT22;5467;59.334;13.512;2022-07-29T08:22:29;22.40;99.90
10828;DHT22;5467;59.334;13.512;2022-07-29T08:24:56;22.40;99.90
10828;DHT22;5467;59.334;13.512;2022-07-29T08:27:24;22.40;99.90
10828;DHT22;5467;59.334;13.512;2022-07-29T08:29:51;22.40;99.90
10828;DHT22;5467;59.334;13.512;2022-07-29T08:32:18;22.40;99.90
10828;DHT22;5467;59.334;13.512;2022-07-29T08:34:46;22.20;99.90
10828;DHT22;5467;59.334;13.512;2022-07-29T08:37:13;22.40;99.90
10828;DHT22;5467;59.334;13.512;2022-07-29T08:39:40;22.40;99.90
10828;DHT22;5467;59.334;13.512;2022-07-29T08:42:07;22.40;99.90
10828;DHT22;5467;59.334;13.512;2022-07-29T08:44:36;22.30;99.90
10828;DHT22;5467;59.334;13.512;2022-07-29T08:47:04;22.30;99.90
10828;DHT22;5467;59.334;13.512;2022-07-29T08:49:33;22.60;99.90
10828;DHT22;5467;59.334;13.512;2022-07-29T08:52:01;22.80;99.90
10828;DHT22;5467;59.334;13.512;2022-07-29T08:54:28;23.00;99.90
10828;DHT22;5467;59.334;13.512;2022-07-29T08:56:56;22.80;99.90
10828;DHT22;5467;59.334;13.512;2022-07-29T08:59:26;22.90;99.90
10828;DHT22;5467;59.334;13.512;2022-07-29T09:01:55;23.20;99.90
10828;DHT22;5467;59.334;13.512;2022-07-29T09:04:28;23.10;99.90
10828;DHT22;5467;59.334;13.512;2022-07-29T09:06:57;23.20;99.90
10828;DHT22;5467;59.334;13.512;2022-07-29T09:09:25;23.30;99.90
10828;DHT22;5467;59.334;13.512;2022-07-29T09:11:53;23.60;99.90
10828;DHT22;5467;59.334;13.512;2022-07-29T09:14:20;23.70;99.90
10828;DHT22;5467;59.334;13.512;2022-07-29T09:16:52;23.60;99.90
10828;DHT22;5467;59.334;13.512;2022-07-29T09:19:25;23.30;99.90
10828;DHT22;5467;59.334;13.512;2022-07-29T09:21:53;23.20;99.90
10828;DHT22;5467;59.334;13.512;2022-07-29T09:24:36;23.10;99.90
10828;DHT22;5467;59.334;13.512;2022-07-29T09:27:12;23.10;99.90
10828;DHT22;5467;59.334;13.512;2022-07-29T09:29:44;22.60;99.90
10828;DHT22;5467;59.334;13.512;2022-07-29T09:32:12;22.60;99.90
10828;DHT22;5467;59.334;13.512;2022-07-29T09:34:40;22.50;99.90
10828;DHT22;5467;59.334;13.512;2022-07-29T09:37:07;22.60;99.90
10828;DHT22;5467;59.334;13.512;2022-07-29T09:39:36;22.90;99.90
10828;DHT22;5467;59.334;13.512;2022-07-29T09:42:04;22.90;99.90
10828;DHT22;5467;59.334;13.512;2022-07-29T09:44:42;23.30;99.90
10828;DHT22;5467;59.334;13.512;2022-07-29T09:47:10;23.10;99.90
10828;DHT22;5467;59.334;13.512;2022-07-29T09:49:53;22.90;99.90
10828;DHT22;5467;59.334;13.512;2022-07-29T09:52:23;22.90;99.90
10828;DHT22;5467;59.334;13.512;2022-07-29T09:54:51;22.90;99.90
10828;DHT22;5467;59.334;13.512;2022-07-29T09:57:24;23.30;99.90
10828;DHT22;5467;59.334;13.512;2022-07-29T09:59:59;22.90;99.90
10828;DHT22;5467;59.334;13.512;2022-07-29T10:02:31;22.90;99.90
10828;DHT22;5467;59.334;13.512;2022-07-29T10:05:00;23.00;99.90
10828;DHT22;5467;59.334;13.512;2022-07-29T10:07:43;23.10;99.90
10828;DHT22;5467;59.334;13.512;2022-07-29T10:10:17;23.30;99.90
10828;DHT22;5467;59.334;13.512;2022-07-29T10:12:50;23.10;99.90
10828;DHT22;5467;59.334;13.512;2022-07-29T10:15:19;23.10;99.90
10828;DHT22;5467;59.334;13.512;2022-07-29T10:17:48;23.40;99.90
10828;DHT22;5467;59.334;13.512;2022-07-29T10:20:16;23.40;99.90
10828;DHT22;5467;59.334;13.512;2022-07-29T10:22:44;23.60;99.90
10828;DHT22;5467;59.334;13.512;2022-07-29T10:25:12;23.70;99.90
10828;DHT22;5467;59.334;13.512;2022-07-29T10:27:41;23.80;99.90
10828;DHT22;5467;59.334;13.512;2022-07-29T10:30:09;24.00;99.90
10828;DHT22;5467;59.334;13.512;2022-07-29T10:33:02;24.10;99.90
10828;DHT22;5467;59.334;13.512;2022-07-29T10:35:46;24.30;99.90
10828;DHT22;5467;59.334;13.512;2022-07-29T10:38:34;24.20;99.90
10828;DHT22;5467;59.334;13.512;2022-07-29T10:41:13;24.00;99.90
10828;DHT22;5467;59.334;13.512;2022-07-29T10:43:55;24.30;99.90
10828;DHT22;5467;59.334;13.512;2022-07-29T10:46:23;24.30;99.90
10828;DHT22;5467;59.334;13.512;2022-07-29T10:49:08;24.00;99.90
10828;DHT22;5467;59.334;13.512;2022-07-29T10:52:00;23.80;99.90
10828;DHT22;5467;59.334;13.512;2022-07-29T10:54:44;23.90;99.90
10828;DHT22;5467;59.334;13.512;2022-07-29T10:57:20;23.90;99.90
10828;DHT22;5467;59.334;13.512;2022-07-29T10:59:49;24.00;99.90
10828;DHT22;5467;59.334;13.512;2022-07-29T11:02:42;24.10;99.90
10828;DHT22;5467;59.334;13.512;2022-07-29T11:05:10;23.90;99.90
10828;DHT22;5467;59.334;13.512;2022-07-29T11:08:15;23.70;99.90
10828;DHT22;5467;59.334;13.512;2022-07-29T11:10:27;23.50;99.90
10828;DHT22;5467;59.334;13.512;2022-07-29T11:12:54;23.50;99.90
10828;DHT22;5467;59.334;13.512;2022-07-29T11:15:22;23.50;99.90
10828;DHT22;5467;59.334;13.512;2022-07-29T11:18:08;23.40;99.90
10828;DHT22;5467;59.334;13.512;2022-07-29T11:20:37;23.40;99.90
10828;DHT22;5467;59.334;13.512;2022-07-29T11:23:26;23.30;99.90
10828;DHT22;5467;59.334;13.512;2022-07-29T11:26:13;23.30;99.90
10828;DHT22;5467;59.334;13.512;2022-07-29T11:28:50;23.60;99.90
10828;DHT22;5467;59.334;13.512;2022-07-29T11:31:31;23.60;99.90
10828;DHT22;5467;59.334;13.512;2022-07-29T11:34:15;23.70;99.90
10828;DHT22;5467;59.334;13.512;2022-07-29T11:39:45;24.10;99.90
10828;DHT22;5467;59.334;13.512;2022-07-29T11:45:24;24.10;99.90
10828;DHT22;5467;59.334;13.512;2022-07-29T11:47:55;24.00;99.90
10828;DHT22;5467;59.334;13.512;2022-07-29T11:50:30;24.20;99.90
10828;DHT22;5467;59.334;13.512;2022-07-29T11:52:58;23.80;99.90
10828;DHT22;5467;59.334;13.512;2022-07-29T11:55:27;23.70;99.90
10828;DHT22;5467;59.334;13.512;2022-07-29T11:57:58;23.90;99.90
10828;DHT22;5467;59.334;13.512;2022-07-29T12:00:29;24.00;99.90
10828;DHT22;5467;59.334;13.512;2022-07-29T12:02:59;23.80;99.90
10828;DHT22;5467;59.334;13.512;2022-07-29T12:05:34;24.00;99.90
10828;DHT22;5467;59.334;13.512;2022-07-29T12:08:10;24.00;99.90
10828;DHT22;5467;59.334;13.512;2022-07-29T12:10:39;24.10;99.90
10828;DHT22;5467;59.334;13.512;2022-07-29T12:13:07;24.20;99.90
10828;DHT22;5467;59.334;13.512;2022-07-29T12:15:34;24.20;99.90
10828;DHT22;5467;59.334;13.512;2022-07-29T12:18:10;24.20;99.90
10828;DHT22;5467;59.334;13.512;2022-07-29T12:20:37;24.20;99.90
10828;DHT22;5467;59.334;13.512;2022-07-29T12:23:08;24.20;99.90
10828;DHT22;5467;59.334;13.512;2022-07-29T12:25:40;24.40;99.90
10828;DHT22;5467;59.334;13.512;2022-07-29T12:28:09;24.50;99.90
10828;DHT22;5467;59.334;13.512;2022-07-29T12:30:43;23.90;99.90
10828;DHT22;5467;59.334;13.512;2022-07-29T12:33:16;23.80;99.90
10828;DHT22;5467;59.334;13.512;2022-07-29T12:35:45;24.00;99.90
10828;DHT22;5467;59.334;13.512;2022-07-29T12:38:14;24.20;99.90
10828;DHT22;5467;59.334;13.512;2022-07-29T12:40:43;24.20;99.90
10828;DHT22;5467;59.334;13.512;2022-07-29T12:43:13;24.50;99.90
10828;DHT22;5467;59.334;13.512;2022-07-29T12:45:42;24.60;99.90
10828;DHT22;5467;59.334;13.512;2022-07-29T12:48:10;24.30;99.90
10828;DHT22;5467;59.334;13.512;2022-07-29T12:50:54;24.10;99.90
10828;DHT22;5467;59.334;13.512;2022-07-29T12:53:21;23.90;99.90
10828;DHT22;5467;59.334;13.512;2022-07-29T12:55:52;24.00;99.90
10828;DHT22;5467;59.334;13.512;2022-07-29T12:58:30;24.20;99.90
10828;DHT22;5467;59.334;13.512;2022-07-29T13:01:09;24.40;99.90
10828;DHT22;5467;59.334;13.512;2022-07-29T13:03:49;24.30;99.90
10828;DHT22;5467;59.334;13.512;2022-07-29T13:06:34;24.50;99.90
10828;DHT22;5467;59.334;13.512;2022-07-29T13:09:05;24.30;99.90
10828;DHT22;5467;59.334;13.512;2022-07-29T13:11:36;24.20;99.90
10828;DHT22;5467;59.334;13.512;2022-07-29T13:14:04;24.20;99.90
10828;DHT22;5467;59.334;13.512;2022-07-29T13:16:31;24.50;99.90
10828;DHT22;5467;59.334;13.512;2022-07-29T13:19:09;24.60;99.90
10828;DHT22;5467;59.334;13.512;2022-07-29T13:21:37;24.70;99.90
10828;DHT22;5467;59.334;13.512;2022-07-29T13:24:06;24.70;99.90
10828;DHT22;5467;59.334;13.512;2022-07-29T13:26:34;24.50;99.90
10828;DHT22;5467;59.334;13.512;2022-07-29T13:29:02;24.40;99.90
10828;DHT22;5467;59.334;13.512;2022-07-29T13:31:29;24.40;99.90
10828;DHT22;5467;59.334;13.512;2022-07-29T13:33:56;24.20;99.90
10828;DHT22;5467;59.334;13.512;2022-07-29T13:36:24;24.20;99.90
10828;DHT22;5467;59.334;13.512;2022-07-29T13:38:52;24.10;99.90
10828;DHT22;5467;59.334;13.512;2022-07-29T13:41:19;24.00;99.90
10828;DHT22;5467;59.334;13.512;2022-07-29T13:43:47;23.90;99.90
10828;DHT22;5467;59.334;13.512;2022-07-29T13:46:14;23.90;99.90
10828;DHT22;5467;59.334;13.512;2022-07-29T13:48:41;23.60;99.90
10828;DHT22;5467;59.334;13.512;2022-07-29T13:51:09;23.80;99.90
10828;DHT22;5467;59.334;13.512;2022-07-29T13:53:36;23.80;99.90
10828;DHT22;5467;59.334;13.512;2022-07-29T13:56:03;23.80;99.90
10828;DHT22;5467;59.334;13.512;2022-07-29T13:58:31;23.80;99.90
10828;DHT22;5467;59.334;13.512;2022-07-29T14:01:00;23.90;99.90
10828;DHT22;5467;59.334;13.512;2022-07-29T14:03:27;23.90;99.90
10828;DHT22;5467;59.334;13.512;2022-07-29T14:05:54;23.70;99.90
10828;DHT22;5467;59.334;13.512;2022-07-29T14:08:23;23.70;99.90
10828;DHT22;5467;59.334;13.512;2022-07-29T14:10:50;23.80;99.90
10828;DHT22;5467;59.334;13.512;2022-07-29T14:13:17;23.90;99.90
10828;DHT22;5467;59.334;13.512;2022-07-29T14:15:44;23.90;99.90
10828;DHT22;5467;59.334;13.512;2022-07-29T14:18:12;23.80;99.90
10828;DHT22;5467;59.334;13.512;2022-07-29T14:20:39;23.80;99.90
10828;DHT22;5467;59.334;13.512;2022-07-29T14:23:06;23.80;99.90
10828;DHT22;5467;59.334;13.512;2022-07-29T14:25:33;23.80;99.90
10828;DHT22;5467;59.334;13.512;2022-07-29T14:28:00;23.80;99.90
10828;DHT22;5467;59.334;13.512;2022-07-29T14:30:27;23.70;99.90
10828;DHT22;5467;59.334;13.512;2022-07-29T14:32:54;23.70;99.90
10828;DHT22;5467;59.334;13.512;2022-07-29T14:35:23;23.60;99.90
10828;DHT22;5467;59.334;13.512;2022-07-29T14:37:50;23.70;99.90
10828;DHT22;5467;59.334;13.512;2022-07-29T14:40:17;23.40;99.90
10828;DHT22;5467;59.334;13.512;2022-07-29T14:42:44;23.50;99.90
10828;DHT22;5467;59.334;13.512;2022-07-29T14:45:11;23.50;99.90
10828;DHT22;5467;59.334;13.512;2022-07-29T14:47:38;23.50;99.90
10828;DHT22;5467;59.334;13.512;2022-07-29T14:50:06;23.40;99.90
10828;DHT22;5467;59.334;13.512;2022-07-29T14:52:34;23.40;99.90
10828;DHT22;5467;59.334;13.512;2022-07-29T14:55:03;23.60;99.90
10828;DHT22;5467;59.334;13.512;2022-07-29T14:57:30;23.50;99.90
10828;DHT22;5467;59.334;13.512;2022-07-29T14:59:57;23.40;99.90
10828;DHT22;5467;59.334;13.512;2022-07-29T15:02:24;23.40;99.90
10828;DHT22;5467;59.334;13.512;2022-07-29T15:04:51;23.30;99.90
10828;DHT22;5467;59.334;13.512;2022-07-29T15:07:18;23.30;99.90
10828;DHT22;5467;59.334;13.512;2022-07-29T15:09:47;23.40;99.90
10828;DHT22;5467;59.334;13.512;2022-07-29T15:12:13;23.30;99.90
10828;DHT22;5467;59.334;13.512;2022-07-29T15:14:41;23.30;99.90
10828;DHT22;5467;59.334;13.512;2022-07-29T15:17:08;23.40;99.90
10828;DHT22;5467;59.334;13.512;2022-07-29T15:19:35;23.40;99.90
10828;DHT22;5467;59.334;13.512;2022-07-29T15:22:02;23.50;99.90
10828;DHT22;5467;59.334;13.512;2022-07-29T15:24:30;23.50;99.90
10828;DHT22;5467;59.334;13.512;2022-07-29T15:26:59;23.50;99.90
10828;DHT22;5467;59.334;13.512;2022-07-29T15:29:26;23.50;99.90
10828;DHT22;5467;59.334;13.512;2022-07-29T15:31:53;23.50;99.90
10828;DHT22;5467;59.334;13.512;2022-07-29T15:34:20;23.40;99.90
10828;DHT22;5467;59.334;13.512;2022-07-29T15:36:49;23.30;99.90
10828;DHT22;5467;59.334;13.512;2022-07-29T15:39:16;23.30;99.90
10828;DHT22;5467;59.334;13.512;2022-07-29T15:41:43;23.30;99.90
10828;DHT22;5467;59.334;13.512;2022-07-29T15:44:12;23.40;99.90
10828;DHT22;5467;59.334;13.512;2022-07-29T15:46:39;23.40;99.90
10828;DHT22;5467;59.334;13.512;2022-07-29T15:49:23;23.40;99.90
10828;DHT22;5467;59.334;13.512;2022-07-29T15:51:56;23.40;99.90